Time;durP1;ratioP1;P1;durP2;ratioP2;P2;SDS_P1;SDS_P2;PMS_P1;PMS_P2;Temp;Humidity;BMP_temperature;BMP_pressure;BME280_temperature;BME280_humidity;BME280_pressure;Samples;Min_cycle;Max_cycle;Signal;HPM_P1;HPM_P2
2021/12/11 00:00:24;;;;;;;5.50;1.80;;;;;;;1.75;90.45;94375.19;4862842;24;20572;-53
2021/12/11 00:03:07;;;;;;;2.50;1.60;;;;;;;1.81;90.02;94376.59;4844897;29;20504;-50
2021/12/11 00:05:36;;;;;;;3.22;1.60;;;;;;;1.78;89.89;94382.56;4832375;29;20576;-49
2021/12/11 00:08:07;;;;;;;3.30;1.80;;;;;;;1.74;89.73;94374.41;4825818;29;20056;-49
2021/12/11 00:10:41;;;;;;;4.28;1.80;;;;;;;1.83;89.28;94385.84;4824470;29;20050;-50
2021/12/11 00:13:15;;;;;;;2.90;1.50;;;;;;;1.81;88.95;94390.72;4825738;29;20460;-47
2021/12/11 00:15:47;;;;;;;3.97;1.88;;;;;;;1.74;89.81;94386.94;4825237;29;20074;-53
2021/12/11 00:18:22;;;;;;;3.13;1.70;;;;;;;1.67;90.11;94397.31;4826315;29;20129;-47
2021/12/11 00:21:12;;;;;;;5.78;2.03;;;;;;;1.68;89.76;94394.31;4824989;29;20054;-50
2021/12/11 00:23:51;;;;;;;2.33;1.33;;;;;;;1.69;89.25;94395.91;4825628;29;20058;-51
2021/12/11 00:26:40;;;;;;;4.57;1.77;;;;;;;1.70;88.92;94412.69;4809144;29;20062;-50
2021/12/11 00:29:10;;;;;;;5.90;1.83;;;;;;;1.76;89.06;94403.44;4824347;29;20046;-50
2021/12/11 00:31:44;;;;;;;3.70;1.65;;;;;;;1.73;88.82;94414.72;4828929;29;20148;-50
2021/12/11 00:34:14;;;;;;;4.90;1.63;;;;;;;1.72;88.94;94426.47;4843966;29;20508;-52
2021/12/11 00:36:59;;;;;;;4.10;1.35;;;;;;;1.74;89.44;94425.06;4843163;29;20595;-49
2021/12/11 00:39:27;;;;;;;3.45;1.50;;;;;;;1.83;88.64;94439.19;4843726;29;20567;-50
2021/12/11 00:41:56;;;;;;;3.70;1.50;;;;;;;1.79;88.15;94440.13;4830908;29;20106;-52
2021/12/11 00:44:34;;;;;;;3.05;1.45;;;;;;;1.78;88.58;94449.22;4825294;29;20050;-52
2021/12/11 00:47:13;;;;;;;4.07;1.58;;;;;;;1.86;88.51;94443.13;4824527;29;20465;-51
2021/12/11 00:50:10;;;;;;;2.20;1.25;;;;;;;1.82;88.80;94460.81;4825199;29;20360;-54
2021/12/11 00:52:44;;;;;;;3.10;1.23;;;;;;;1.84;88.28;94458.63;4825227;29;20077;-52
2021/12/11 00:55:17;;;;;;;1.95;1.20;;;;;;;1.70;89.36;94474.00;4824764;29;20424;-50
2021/12/11 00:57:46;;;;;;;3.78;1.55;;;;;;;1.73;88.77;94470.72;4825193;29;20142;-47
2021/12/11 01:00:22;;;;;;;6.25;1.70;;;;;;;1.78;88.18;94473.22;4824730;29;20054;-48
2021/12/11 01:02:52;;;;;;;3.25;1.33;;;;;;;1.88;87.98;94478.25;4823783;29;20129;-52
2021/12/11 01:05:20;;;;;;;3.17;1.35;;;;;;;1.85;88.04;94485.00;4824464;29;20146;-51
2021/12/11 01:07:48;;;;;;;3.88;1.60;;;;;;;1.75;88.01;94489.84;4825304;29;20553;-50
2021/12/11 01:10:22;;;;;;;4.22;1.40;;;;;;;1.91;87.87;94509.63;4824711;29;20042;-44
2021/12/11 01:12:56;;;;;;;2.95;1.33;;;;;;;1.81;88.30;94500.03;4824901;29;20068;-46
2021/12/11 01:15:24;;;;;;;2.92;1.23;;;;;;;1.81;87.98;94517.94;4824354;29;20078;-44
2021/12/11 01:18:22;;;;;;;2.60;1.20;;;;;;;1.85;86.80;94510.88;4825489;29;20103;-51
2021/12/11 01:21:02;;;;;;;3.70;1.40;;;;;;;1.66;88.11;94519.16;4825101;29;20569;-50
2021/12/11 01:26:12;;;;;;;2.33;1.33;;;;;;;1.68;88.19;94527.63;4824442;29;20557;-53
2021/12/11 01:28:40;;;;;;;3.80;1.23;;;;;;;1.90;87.51;94533.94;4825251;29;20145;-52
2021/12/11 01:31:10;;;;;;;2.15;1.23;;;;;;;1.84;87.72;94538.63;4825317;29;20129;-53
2021/12/11 01:33:38;;;;;;;3.33;1.23;;;;;;;1.69;87.97;94544.41;4826112;29;20507;-51
2021/12/11 01:36:06;;;;;;;2.22;1.38;;;;;;;1.93;87.46;94541.34;4825035;29;20050;-52
2021/12/11 01:38:34;;;;;;;2.33;1.60;;;;;;;1.85;87.46;94538.34;4825172;29;20082;-51
2021/12/11 01:41:05;;;;;;;1.98;1.27;;;;;;;1.92;87.15;94537.88;4823384;29;20078;-51
2021/12/11 01:43:36;;;;;;;2.75;1.50;;;;;;;1.80;87.82;94553.69;4824066;29;20160;-48
2021/12/11 01:46:05;;;;;;;1.75;1.20;;;;;;;1.76;87.73;94558.09;4822037;29;20053;-49
2021/12/11 01:48:38;;;;;;;1.77;1.20;;;;;;;1.69;87.86;94561.22;4824026;29;20157;-44
2021/12/11 01:51:11;;;;;;;2.50;1.20;;;;;;;1.83;87.14;94555.75;4824202;29;20054;-45
2021/12/11 01:53:48;;;;;;;3.70;1.30;;;;;;;1.81;87.08;94558.72;4823888;29;20409;-52
2021/12/11 01:56:22;;;;;;;2.25;1.27;;;;;;;1.81;87.35;94564.03;4823459;29;20445;-49
2021/12/11 01:58:55;;;;;;;2.03;1.17;;;;;;;1.84;87.54;94559.97;4823786;29;20475;-48
2021/12/11 02:01:44;;;;;;;3.58;1.20;;;;;;;1.89;87.26;94562.50;4823889;29;20078;-50
2021/12/11 02:04:14;;;;;;;2.10;1.20;;;;;;;1.68;87.64;94572.94;4823932;29;20043;-50
2021/12/11 02:06:43;;;;;;;2.58;1.30;;;;;;;1.81;86.95;94566.72;4823412;29;20074;-49
2021/12/11 02:09:16;;;;;;;1.48;1.08;;;;;;;1.79;86.58;94573.47;4823872;29;20050;-50
2021/12/11 02:11:46;;;;;;;3.03;1.40;;;;;;;1.74;87.46;94579.72;4823713;29;20046;-48
2021/12/11 02:14:15;;;;;;;2.85;1.30;;;;;;;1.87;87.24;94575.34;4823679;29;20568;-50
2021/12/11 02:16:46;;;;;;;2.83;1.30;;;;;;;1.64;87.35;94578.13;4822921;29;20047;-48
2021/12/11 02:19:22;;;;;;;3.08;1.30;;;;;;;1.73;87.38;94567.47;4823724;29;20366;-50
2021/12/11 02:21:56;;;;;;;2.15;1.20;;;;;;;1.90;86.46;94579.28;4822882;29;20058;-49
2021/12/11 02:24:30;;;;;;;3.03;1.42;;;;;;;1.67;87.23;94573.25;4823613;29;20092;-49
2021/12/11 02:26:58;;;;;;;2.08;1.30;;;;;;;1.70;87.39;94581.44;4823212;29;20050;-48
2021/12/11 02:29:31;;;;;;;2.90;1.40;;;;;;;1.74;87.35;94589.59;4823658;29;20046;-51
2021/12/11 02:31:58;;;;;;;2.90;1.30;;;;;;;1.72;87.54;94597.09;4823275;29;20137;-50
2021/12/11 02:34:35;;;;;;;2.92;1.65;;;;;;;1.74;87.06;94603.72;4822191;29;20039;-50
2021/12/11 02:37:13;;;;;;;3.80;1.48;;;;;;;1.74;87.18;94605.59;4823057;29;20050;-51
2021/12/11 02:40:02;;;;;;;2.28;1.23;;;;;;;1.69;86.92;94597.72;4823486;29;20420;-48
2021/12/11 02:42:49;;;;;;;2.03;1.40;;;;;;;1.74;87.24;94602.94;4834995;29;20054;-48
2021/12/11 02:45:31;;;;;;;2.85;1.30;;;;;;;1.78;86.29;94595.88;4836555;29;20054;-51
2021/12/11 02:48:07;;;;;;;3.25;1.33;;;;;;;1.78;87.26;94619.88;4841340;29;20145;-49
2021/12/11 02:50:41;;;;;;;2.97;1.48;;;;;;;1.75;86.72;94615.16;4841464;29;20129;-52
2021/12/11 02:53:19;;;;;;;3.20;1.70;;;;;;;1.80;86.53;94620.38;4840346;29;20490;-50
2021/12/11 02:56:12;;;;;;;3.15;1.40;;;;;;;1.96;86.03;94624.19;4826307;29;20137;-48
2021/12/11 02:58:45;;;;;;;2.70;1.48;;;;;;;1.72;87.15;94627.22;4822499;29;20085;-45
2021/12/11 03:01:23;;;;;;;2.13;1.30;;;;;;;1.81;86.45;94633.38;4823342;29;20137;-48
2021/12/11 03:04:07;;;;;;;2.25;1.50;;;;;;;1.86;86.46;94637.81;4823272;29;20042;-45
2021/12/11 03:06:40;;;;;;;1.98;1.33;;;;;;;1.79;86.72;94630.25;4822780;29;20043;-50
2021/12/11 03:09:11;;;;;;;2.53;1.40;;;;;;;1.89;86.20;94647.84;4823174;29;20141;-47
2021/12/11 03:11:39;;;;;;;2.80;1.35;;;;;;;1.82;86.16;94636.81;4821696;29;20120;-53
2021/12/11 03:14:14;;;;;;;3.17;1.40;;;;;;;1.84;86.42;94639.97;4823690;29;20055;-45
2021/12/11 03:16:43;;;;;;;3.35;1.40;;;;;;;1.91;86.61;94647.53;4823213;29;20081;-48
2021/12/11 03:19:14;;;;;;;2.55;1.30;;;;;;;1.84;85.75;94639.97;4823125;29;20062;-50
2021/12/11 03:21:42;;;;;;;3.92;1.48;;;;;;;1.68;86.96;94654.81;4822116;29;20137;-46
2021/12/11 03:24:10;;;;;;;2.05;1.60;;;;;;;1.79;87.02;94662.25;4822727;29;20053;-50
2021/12/11 03:26:38;;;;;;;1.88;1.20;;;;;;;1.75;86.27;94665.81;4822812;29;20048;-50
2021/12/11 03:29:07;;;;;;;4.20;1.60;;;;;;;1.70;87.02;94676.63;4823007;29;20110;-51
2021/12/11 03:31:38;;;;;;;5.10;1.83;;;;;;;1.76;87.42;94680.75;4821820;29;20051;-48
2021/12/11 03:34:09;;;;;;;4.18;1.52;;;;;;;1.79;86.79;94680.13;4822526;29;20090;-50
2021/12/11 03:36:37;;;;;;;3.65;1.50;;;;;;;1.72;86.93;94682.44;4822874;29;20050;-47
2021/12/11 03:39:17;;;;;;;3.53;1.58;;;;;;;1.77;87.07;94684.97;4822842;29;20107;-47
2021/12/11 03:41:46;;;;;;;2.83;1.50;;;;;;;1.89;86.60;94695.88;4825127;29;20078;-51
2021/12/11 03:44:15;;;;;;;3.30;1.73;;;;;;;1.83;86.90;94697.09;4840992;29;20499;-50
2021/12/11 03:46:45;;;;;;;2.55;1.58;;;;;;;1.76;87.25;94700.19;4831176;29;20126;-48
2021/12/11 03:49:19;;;;;;;2.97;1.60;;;;;;;1.81;87.31;94696.59;4822758;29;20060;-51
2021/12/11 03:51:48;;;;;;;2.47;1.42;;;;;;;1.90;86.81;94715.31;4822958;29;20078;-50
2021/12/11 03:54:39;;;;;;;2.67;1.52;;;;;;;1.89;87.16;94717.19;4822935;29;20047;-52
2021/12/11 03:57:08;;;;;;;3.30;1.95;;;;;;;1.78;87.58;94710.53;4822350;29;20544;-49
2021/12/11 03:59:35;;;;;;;3.30;1.77;;;;;;;1.48;89.03;94710.22;4822498;29;20566;-46
2021/12/11 04:02:12;;;;;;;2.97;1.92;;;;;;;1.62;89.01;94724.25;4822467;29;20142;-48
2021/12/11 04:04:46;;;;;;;4.18;1.80;;;;;;;1.58;89.35;94725.97;4822910;29;20043;-50
2021/12/11 04:07:20;;;;;;;5.13;1.98;;;;;;;1.49;89.45;94727.78;4840559;29;20054;-49
2021/12/11 04:09:47;;;;;;;4.30;1.70;;;;;;;1.54;89.86;94730.34;4840718;29;20049;-46
2021/12/11 04:12:15;;;;;;;3.70;1.90;;;;;;;1.72;89.06;94725.09;4840663;29;20560;-45
2021/12/11 04:14:46;;;;;;;4.40;1.98;;;;;;;1.69;89.44;94731.03;4833180;29;20068;-46
2021/12/11 04:17:22;;;;;;;4.07;2.33;;;;;;;1.68;89.38;94734.81;4834510;29;20064;-45
2021/12/11 04:19:55;;;;;;;4.63;2.30;;;;;;;1.56;90.40;94730.81;4840974;29;20050;-46
2021/12/11 04:22:24;;;;;;;4.40;2.20;;;;;;;1.56;90.17;94738.00;4839501;29;20523;-48
2021/12/11 04:24:51;;;;;;;3.90;1.95;;;;;;;1.55;90.60;94741.78;4835431;29;20055;-48
2021/12/11 04:27:24;;;;;;;4.13;1.90;;;;;;;1.54;90.83;94750.88;4822202;29;20054;-49
2021/12/11 04:29:51;;;;;;;4.43;1.85;;;;;;;1.55;90.67;94750.56;4822283;29;20473;-48
2021/12/11 04:32:21;;;;;;;3.83;2.10;;;;;;;1.62;90.71;94766.91;4828139;29;20053;-45
2021/12/11 04:34:49;;;;;;;4.32;2.10;;;;;;;1.37;91.70;94747.00;4836266;29;20042;-46
2021/12/11 04:37:22;;;;;;;2.50;1.80;;;;;;;1.42;91.99;94759.41;4822016;29;20052;-47
2021/12/11 04:39:59;;;;;;;4.28;2.08;;;;;;;1.33;93.10;94761.22;4830886;29;20074;-46
2021/12/11 04:44:59;;;;;;;3.05;1.77;;;;;;;1.16;95.08;94773.31;4841174;29;20057;-47
2021/12/11 04:47:39;;;;;;;3.97;2.22;;;;;;;0.88;97.07;94772.59;4828415;29;20480;-48
2021/12/11 04:50:17;;;;;;;3.58;2.40;;;;;;;1.00;96.04;94772.06;4824139;29;20489;-47
2021/12/11 05:00:58;;;;;;;3.80;2.30;;;;;;;1.23;95.24;94793.41;4825240;29;20581;-47
2021/12/11 05:11:20;;;;;;;5.57;2.78;;;;;;;0.95;96.65;94817.47;4825224;29;20050;-44
2021/12/11 05:13:47;;;;;;;4.05;2.08;;;;;;;1.06;95.67;94810.81;4824967;29;20047;-46
2021/12/11 05:16:15;;;;;;;5.47;2.30;;;;;;;0.93;96.88;94816.97;4824452;29;20124;-48
2021/12/11 05:18:45;;;;;;;3.92;2.40;;;;;;;1.17;95.26;94828.19;4824892;29;20065;-49
2021/12/11 05:21:16;;;;;;;4.80;2.17;;;;;;;0.65;98.86;94832.16;4824793;29;20050;-51
2021/12/11 05:23:44;;;;;;;3.45;2.20;;;;;;;0.80;97.89;94831.09;4824792;29;20084;-50
2021/12/11 05:26:11;;;;;;;5.30;2.55;;;;;;;1.00;96.61;94843.97;4824767;29;20137;-52
2021/12/11 05:28:39;;;;;;;3.30;1.90;;;;;;;0.93;97.16;94838.28;4824879;29;20057;-51
2021/12/11 05:31:09;;;;;;;4.10;2.30;;;;;;;1.05;96.47;94849.22;4824828;29;20050;-50
2021/12/11 05:33:37;;;;;;;3.30;2.10;;;;;;;1.15;95.82;94851.66;4824451;29;20457;-52
2021/12/11 05:36:06;;;;;;;6.15;2.75;;;;;;;0.85;97.74;94852.28;4824621;29;20049;-54
2021/12/11 05:38:35;;;;;;;4.45;1.92;;;;;;;0.80;99.37;94850.50;4824591;29;20555;-51
2021/12/11 05:41:07;;;;;;;4.13;2.45;;;;;;;1.08;96.83;94853.16;4825682;29;20103;-51
2021/12/11 05:43:35;;;;;;;4.43;2.60;;;;;;;1.05;96.28;94848.44;4823923;29;20057;-50
2021/12/11 05:46:04;;;;;;;3.50;2.00;;;;;;;1.09;96.31;94858.19;4828317;29;20081;-54
2021/12/11 05:48:31;;;;;;;3.88;2.13;;;;;;;1.08;95.96;94856.63;4843746;29;20132;-51
2021/12/11 05:51:01;;;;;;;3.30;2.10;;;;;;;1.03;96.89;94859.38;4843508;29;20138;-53
2021/12/11 05:53:31;;;;;;;4.03;2.33;;;;;;;1.02;96.78;94862.34;4843584;29;20417;-50
2021/12/11 05:56:02;;;;;;;4.85;2.25;;;;;;;0.90;97.47;94868.94;4830379;29;20493;-54
2021/12/11 05:58:46;;;;;;;4.28;2.20;;;;;;;0.95;97.96;94868.06;4824180;29;20061;-48
2021/12/11 06:01:33;;;;;;;4.88;2.45;;;;;;;0.97;96.76;94859.78;4821251;29;20050;-48
2021/12/11 06:04:05;;;;;;;4.53;2.20;;;;;;;0.76;98.14;94872.72;4812113;29;20104;-48
2021/12/11 06:06:33;;;;;;;4.45;2.33;;;;;;;0.89;97.60;94878.03;4804093;29;20078;-49
2021/12/11 06:09:00;;;;;;;4.93;2.25;;;;;;;0.93;97.62;94880.88;4806089;29;20046;-49
2021/12/11 06:11:28;;;;;;;4.70;2.20;;;;;;;0.86;98.76;94883.94;4814101;29;20137;-48
2021/12/11 06:13:55;;;;;;;5.43;2.97;;;;;;;1.00;96.80;94888.47;4824109;29;20493;-48
2021/12/11 06:16:22;;;;;;;6.15;2.42;;;;;;;1.07;96.29;94886.19;4815178;29;20046;-50
2021/12/11 06:18:53;;;;;;;3.90;2.33;;;;;;;1.19;96.00;94899.03;4805596;29;20050;-51
2021/12/11 06:21:20;;;;;;;4.30;2.28;;;;;;;1.15;95.45;94901.50;4805604;29;20047;-49
2021/12/11 06:23:46;;;;;;;3.75;2.42;;;;;;;0.84;96.88;94894.09;4805069;29;20051;-47
2021/12/11 06:26:13;;;;;;;3.65;2.22;;;;;;;1.02;96.09;94911.06;4815643;29;20053;-46
2021/12/11 06:28:41;;;;;;;6.60;2.35;;;;;;;1.12;95.79;94910.88;4805251;29;20652;-45
2021/12/11 06:31:16;;;;;;;3.95;2.10;;;;;;;1.06;95.74;94920.03;4803781;29;20517;-48
2021/12/11 06:33:44;;;;;;;4.03;2.00;;;;;;;0.95;96.35;94925.88;4818319;29;20054;-47
2021/12/11 06:36:11;;;;;;;3.55;2.10;;;;;;;1.08;95.43;94936.53;4822736;29;20521;-48
2021/12/11 06:38:39;;;;;;;3.40;2.30;;;;;;;1.16;94.64;94941.16;4823183;29;20056;-46
2021/12/11 06:41:09;;;;;;;4.80;2.47;;;;;;;1.36;93.93;94941.84;4823081;29;20486;-47
2021/12/11 06:43:37;;;;;;;3.80;2.55;;;;;;;1.30;93.63;94956.34;4808394;29;20058;-48
2021/12/11 06:46:06;;;;;;;5.72;2.50;;;;;;;1.30;93.77;94951.00;4806502;29;20046;-46
2021/12/11 06:48:34;;;;;;;4.63;2.20;;;;;;;1.25;93.32;94961.78;4823054;29;20489;-49
2021/12/11 06:51:03;;;;;;;3.90;2.30;;;;;;;1.19;93.82;94968.28;4823217;29;20122;-52
2021/12/11 06:53:53;;;;;;;3.85;2.22;;;;;;;1.46;92.95;94973.59;4823611;29;20050;-52
2021/12/11 06:56:21;;;;;;;4.15;2.17;;;;;;;1.37;93.34;94970.88;4812199;29;20058;-51
2021/12/11 06:58:51;;;;;;;4.28;2.10;;;;;;;1.42;92.92;94977.16;4804910;29;20077;-49
2021/12/11 07:01:21;;;;;;;3.70;2.05;;;;;;;1.56;91.73;94981.41;4805032;29;20055;-48
2021/12/11 07:03:49;;;;;;;4.32;1.92;;;;;;;1.64;91.76;94990.59;4804205;29;20121;-50
2021/12/11 07:06:16;;;;;;;3.95;2.38;;;;;;;1.51;91.62;94997.50;4816120;29;20048;-48
2021/12/11 07:08:44;;;;;;;3.83;2.38;;;;;;;1.38;91.77;94995.63;4822475;29;20056;-46
2021/12/11 07:11:12;;;;;;;3.13;2.00;;;;;;;1.30;92.66;95004.31;4822934;29;20378;-50
2021/12/11 07:13:41;;;;;;;4.78;2.13;;;;;;;1.30;92.52;95005.13;4813698;29;20043;-49
2021/12/11 07:16:09;;;;;;;4.00;1.90;;;;;;;1.50;91.60;95019.16;4804486;29;20517;-49
2021/12/11 07:18:37;;;;;;;4.30;2.05;;;;;;;1.48;91.73;95023.97;4804862;29;20047;-47
2021/12/11 07:21:05;;;;;;;5.93;2.70;;;;;;;1.63;91.17;95037.00;4804391;29;20057;-49
2021/12/11 07:23:34;;;;;;;5.80;2.30;;;;;;;1.33;91.64;95033.84;4803476;29;20486;-49
2021/12/11 07:26:28;;;;;;;3.65;2.25;;;;;;;1.50;92.45;95048.47;4803673;29;20047;-50
2021/12/11 07:28:57;;;;;;;3.70;2.00;;;;;;;1.39;91.90;95042.50;4803378;29;20047;-49
2021/12/11 07:31:25;;;;;;;3.35;2.10;;;;;;;1.45;91.55;95048.56;4804297;29;20123;-52
2021/12/11 07:33:53;;;;;;;4.25;2.25;;;;;;;1.43;91.66;95062.19;4804166;29;20050;-48
2021/12/11 07:36:22;;;;;;;4.72;2.13;;;;;;;1.40;91.89;95052.13;4803643;29;20459;-50
2021/12/11 07:38:52;;;;;;;3.60;2.40;;;;;;;1.44;92.27;95082.41;4803311;29;20450;-51
2021/12/11 07:41:21;;;;;;;3.20;2.00;;;;;;;1.54;91.36;95079.56;4802761;29;20326;-46
2021/12/11 07:43:50;;;;;;;4.53;2.00;;;;;;;1.26;92.87;95091.25;4804215;29;20446;-47
2021/12/11 07:46:21;;;;;;;4.80;2.25;;;;;;;1.25;93.13;95111.78;4802608;29;20053;-45
2021/12/11 07:48:50;;;;;;;5.80;2.17;;;;;;;0.88;95.13;95116.13;4804302;29;20506;-48
2021/12/11 07:51:18;;;;;;;4.18;2.13;;;;;;;1.02;95.84;95118.84;4803141;29;20431;-46
2021/12/11 07:53:45;;;;;;;5.28;2.53;;;;;;;0.89;95.70;95130.25;4804250;29;20057;-46
2021/12/11 07:56:13;;;;;;;4.43;1.95;;;;;;;0.68;97.04;95130.56;4803391;29;20409;-47
2021/12/11 07:58:40;;;;;;;4.25;2.33;;;;;;;0.86;96.62;95136.13;4804351;29;20051;-49
2021/12/11 08:01:08;;;;;;;4.30;2.10;;;;;;;0.53;98.57;95149.41;4803930;29;20522;-47
2021/12/11 08:03:37;;;;;;;3.05;1.88;;;;;;;0.53;98.54;95149.41;4802907;29;20147;-48
2021/12/11 08:06:06;;;;;;;2.80;1.70;;;;;;;0.32;99.22;95145.41;4817210;29;20145;-51
2021/12/11 08:08:33;;;;;;;4.05;2.03;;;;;;;0.59;98.91;95153.56;4822285;29;20080;-46
2021/12/11 08:11:03;;;;;;;4.43;2.17;;;;;;;0.63;98.77;95165.22;4822198;29;20050;-51
2021/12/11 08:13:33;;;;;;;4.85;2.28;;;;;;;0.78;97.21;95158.09;4812541;29;20095;-51
2021/12/11 08:16:00;;;;;;;3.47;1.90;;;;;;;0.72;97.47;95173.34;4803143;29;20058;-52
2021/12/11 08:18:27;;;;;;;4.20;2.15;;;;;;;0.50;99.31;95173.91;4804267;29;20519;-50
2021/12/11 08:20:54;;;;;;;3.72;2.17;;;;;;;0.56;98.84;95179.97;4806128;29;20046;-51
2021/12/11 08:23:22;;;;;;;5.85;2.58;;;;;;;0.56;98.50;95183.41;4807572;29;20047;-48
2021/12/11 08:25:50;;;;;;;3.20;2.05;;;;;;;0.20;100.00;95188.41;4807017;29;20050;-46
2021/12/11 08:28:22;;;;;;;3.65;2.50;;;;;;;0.55;99.81;95195.13;4807606;29;20058;-48
2021/12/11 08:30:51;;;;;;;3.92;2.22;;;;;;;0.56;99.34;95198.59;4807506;29;20154;-48
2021/12/11 08:33:20;;;;;;;3.90;2.22;;;;;;;0.35;99.72;95206.03;4807284;29;20047;-47
2021/12/11 08:35:47;;;;;;;3.95;2.53;;;;;;;0.54;99.64;95206.88;4806248;29;20047;-46
2021/12/11 08:38:17;;;;;;;4.53;2.63;;;;;;;0.70;97.97;95218.09;4806379;29;20055;-51
2021/12/11 08:40:49;;;;;;;4.68;2.92;;;;;;;0.86;97.36;95221.34;4806927;29;20107;-51
2021/12/11 08:43:18;;;;;;;5.05;2.97;;;;;;;0.63;97.25;95218.47;4807304;29;20059;-53
2021/12/11 08:45:59;;;;;;;4.82;3.05;;;;;;;0.72;98.55;95231.16;4806307;29;20047;-53
2021/12/11 08:48:29;;;;;;;5.00;3.08;;;;;;;0.76;97.26;95240.13;4807235;29;20051;-49
2021/12/11 08:51:02;;;;;;;4.70;3.35;;;;;;;0.82;97.40;95246.97;4807311;29;20050;-51
2021/12/11 08:53:30;;;;;;;5.22;3.55;;;;;;;0.70;97.42;95256.16;4806957;29;20100;-52
2021/12/11 08:55:59;;;;;;;6.65;3.35;;;;;;;0.49;98.87;95268.16;4804704;29;20066;-48
2021/12/11 08:58:29;;;;;;;5.57;3.60;;;;;;;0.74;97.69;95268.91;4806676;29;20043;-48
2021/12/11 09:01:03;;;;;;;6.95;3.53;;;;;;;0.68;98.48;95271.66;4806477;29;20050;-49
2021/12/11 09:03:58;;;;;;;6.03;3.78;;;;;;;0.63;98.02;95265.59;4806425;29;20566;-51
2021/12/11 09:06:31;;;;;;;;;;;;;;;0.43;98.64;95277.28;4806423;29;20494;-49
2021/12/11 09:09:06;;;;;;;;;;;;;;;0.62;97.92;95278.13;4806974;29;19933;-46
2021/12/11 09:11:51;;;;;;;4.88;3.47;;;;;;;0.80;97.79;95287.19;4805392;29;20460;-45
2021/12/11 09:14:40;;;;;;;6.18;4.30;;;;;;;1.01;96.82;95298.41;4805605;29;20065;-48
2021/12/11 09:17:31;;;;;;;5.75;4.30;;;;;;;1.04;95.75;95303.16;4805884;29;20406;-48
2021/12/11 09:20:00;;;;;;;6.43;4.25;;;;;;;0.89;95.55;95306.00;4806403;29;20111;-50
2021/12/11 09:22:44;;;;;;;9.23;4.43;;;;;;;0.93;96.72;95320.34;4806670;29;20163;-48
2021/12/11 09:25:23;;;;;;;6.75;4.72;;;;;;;0.67;97.89;95320.63;4816484;29;20538;-49
2021/12/11 09:28:28;;;;;;;6.05;4.70;;;;;;;0.68;97.06;95324.91;4824296;29;20046;-48
2021/12/11 09:30:55;;;;;;;6.00;4.38;;;;;;;0.98;96.00;95324.81;4839792;29;20420;-46
2021/12/11 09:33:28;;;;;;;6.25;4.68;;;;;;;0.80;97.08;95335.13;4812506;29;20054;-50
2021/12/11 09:36:05;;;;;;;6.40;4.68;;;;;;;0.99;95.48;95339.72;4806249;29;20134;-52
2021/12/11 09:38:39;;;;;;;6.45;4.80;;;;;;;0.89;95.87;95340.63;4807119;29;20055;-52
2021/12/11 09:41:20;;;;;;;7.43;4.35;;;;;;;0.64;96.35;95355.81;4806860;29;20050;-49
2021/12/11 09:43:58;;;;;;;6.18;4.40;;;;;;;0.85;95.87;95350.28;4807269;29;20051;-48
2021/12/11 09:46:33;;;;;;;6.47;4.88;;;;;;;0.79;95.92;95360.19;4805220;29;20047;-49
2021/12/11 09:49:02;;;;;;;6.88;5.10;;;;;;;0.80;96.31;95360.97;4805853;29;20070;-49
2021/12/11 09:51:36;;;;;;;7.20;5.07;;;;;;;0.72;97.07;95361.63;4806249;29;20134;-50
2021/12/11 09:54:11;;;;;;;7.95;5.45;;;;;;;0.65;96.66;95354.75;4806833;29;20120;-50
2021/12/11 09:56:48;;;;;;;6.38;4.85;;;;;;;0.84;96.61;95357.44;4806024;29;20046;-49
2021/12/11 09:59:18;;;;;;;7.63;4.93;;;;;;;0.87;96.62;95364.06;4805165;29;20137;-51
2021/12/11 10:01:48;;;;;;;7.78;5.75;;;;;;;0.94;96.15;95359.19;4804583;29;20047;-46
2021/12/11 10:04:22;;;;;;;7.95;5.68;;;;;;;0.92;95.94;95366.69;4804310;29;20166;-46
2021/12/11 10:07:24;;;;;;;7.88;5.28;;;;;;;0.73;97.04;95366.63;4805019;29;20043;-47
2021/12/11 10:09:43;;;;;;;7.53;5.05;;;;;;;0.82;97.50;95369.47;4805471;29;20133;-47
2021/12/11 10:12:32;;;;;;;7.50;5.65;;;;;;;0.97;97.06;95366.63;4805509;29;20238;-49
2021/12/11 10:15:13;;;;;;;7.22;5.18;;;;;;;1.20;95.45;95375.66;4804688;29;20141;-46
2021/12/11 10:17:49;;;;;;;8.10;5.85;;;;;;;1.17;95.47;95385.03;4805215;29;20061;-46
2021/12/11 10:20:58;;;;;;;6.97;5.22;;;;;;;1.17;95.42;95385.03;4805221;29;20051;-46
2021/12/11 10:23:29;;;;;;;6.85;5.07;;;;;;;0.93;95.93;95390.38;4810105;29;20062;-46
2021/12/11 10:26:00;;;;;;;8.35;5.53;;;;;;;0.87;95.66;95390.72;4817552;29;20078;-46
2021/12/11 10:28:29;;;;;;;6.40;4.70;;;;;;;0.99;95.33;95396.44;4805375;29;20484;-47
2021/12/11 10:31:05;;;;;;;6.57;4.70;;;;;;;0.97;95.28;95398.59;4819355;29;20130;-48
2021/12/11 10:33:32;;;;;;;6.53;4.47;;;;;;;0.88;94.63;95405.63;4804932;29;20047;-50
2021/12/11 10:36:05;;;;;;;6.88;4.95;;;;;;;1.05;94.97;95405.97;4804917;29;20047;-50
2021/12/11 10:38:33;;;;;;;7.20;5.68;;;;;;;1.25;93.47;95431.56;4805743;29;20054;-51
2021/12/11 10:41:20;;;;;;;5.85;3.85;;;;;;;0.87;94.55;95428.00;4805803;29;20049;-53
2021/12/11 10:43:53;;;;;;;6.65;4.40;;;;;;;0.97;94.50;95441.19;4804443;29;20050;-48
2021/12/11 10:46:27;;;;;;;6.03;4.45;;;;;;;1.16;93.43;95427.94;4802775;29;20051;-48
2021/12/11 10:48:54;;;;;;;6.70;4.97;;;;;;;1.38;92.47;95430.09;4803646;29;20126;-50
2021/12/11 10:51:27;;;;;;;6.47;4.75;;;;;;;1.16;93.04;95444.72;4804969;29;20047;-50
2021/12/11 10:53:54;;;;;;;5.97;4.53;;;;;;;1.27;92.55;95448.09;4818875;29;20054;-50
2021/12/11 10:56:24;;;;;;;7.28;4.57;;;;;;;1.27;93.15;95455.25;4804035;29;20490;-49
2021/12/11 10:58:56;;;;;;;7.47;4.75;;;;;;;1.05;94.19;95447.78;4803737;29;20055;-45
2021/12/11 11:01:38;;;;;;;6.63;4.32;;;;;;;1.13;93.83;95461.28;4818910;29;20074;-48
2021/12/11 11:04:20;;;;;;;5.55;3.92;;;;;;;0.85;94.45;95467.44;4804364;29;20074;-46
2021/12/11 11:06:49;;;;;;;6.20;4.25;;;;;;;0.95;93.98;95470.00;4802789;29;20050;-47
2021/12/11 11:09:18;;;;;;;6.47;4.05;;;;;;;0.90;93.72;95475.38;4804412;29;20051;-48
2021/12/11 11:11:47;;;;;;;6.10;4.30;;;;;;;1.03;93.33;95480.03;4804264;29;20050;-47
2021/12/11 11:14:15;;;;;;;6.93;4.68;;;;;;;0.90;94.18;95484.16;4804468;29;20079;-49
2021/12/11 11:16:51;;;;;;;5.78;4.10;;;;;;;0.96;94.34;95487.56;4804323;29;20046;-50
2021/12/11 11:19:21;;;;;;;6.32;3.70;;;;;;;0.77;93.28;95489.34;4805373;29;20051;-50
2021/12/11 11:21:56;;;;;;;6.05;4.65;;;;;;;1.02;93.14;95491.78;4805268;29;20485;-46
2021/12/11 11:24:27;;;;;;;7.97;4.47;;;;;;;0.96;93.46;95498.22;4803398;29;20103;-47
2021/12/11 11:26:54;;;;;;;6.18;4.65;;;;;;;1.02;92.75;95496.31;4803886;29;20486;-48
2021/12/11 11:29:23;;;;;;;6.38;4.07;;;;;;;0.87;94.26;95516.69;4804218;29;20065;-50
2021/12/11 11:31:54;;;;;;;6.22;4.22;;;;;;;0.63;95.56;95521.94;4803127;29;20588;-45
2021/12/11 11:34:24;;;;;;;5.95;4.28;;;;;;;0.51;96.56;95515.41;4815295;29;20493;-51
2021/12/11 11:36:52;;;;;;;5.60;3.70;;;;;;;0.28;97.64;95524.88;4822310;29;20099;-49
2021/12/11 11:39:21;;;;;;;6.03;4.05;;;;;;;0.49;98.58;95526.34;4823101;29;20496;-50
2021/12/11 11:41:55;;;;;;;7.35;4.93;;;;;;;0.72;97.16;95529.34;4822563;29;20137;-46
2021/12/11 11:44:24;;;;;;;6.45;4.72;;;;;;;0.73;95.54;95531.72;4808158;29;20057;-50
2021/12/11 11:46:54;;;;;;;7.10;4.95;;;;;;;0.64;96.47;95534.19;4812913;29;20137;-51
2021/12/11 11:49:22;;;;;;;8.93;4.95;;;;;;;0.92;95.02;95534.50;4821188;29;20424;-50
2021/12/11 11:51:56;;;;;;;6.07;4.60;;;;;;;0.93;94.14;95539.53;4821269;29;20051;-52
2021/12/11 11:54:27;;;;;;;6.85;5.05;;;;;;;1.02;93.82;95547.72;4822167;29;20070;-48
2021/12/11 11:57:09;;;;;;;5.90;4.30;;;;;;;0.89;94.47;95551.81;4825547;29;20461;-50
2021/12/11 11:59:37;;;;;;;6.30;4.75;;;;;;;0.74;92.47;95535.97;4851054;24;20208;-42
2021/12/11 12:02:08;;;;;;;6.60;4.65;;;;;;;0.77;93.26;95546.06;4861289;29;20081;-43
2021/12/11 12:04:37;;;;;;;7.35;5.38;;;;;;;1.02;93.18;95558.38;4844157;29;20054;-44
2021/12/11 12:07:06;;;;;;;6.82;5.00;;;;;;;0.92;92.36;95555.81;4843457;29;20133;-42
2021/12/11 12:09:39;;;;;;;7.90;5.22;;;;;;;1.17;92.17;95568.91;4841388;29;20129;-43
2021/12/11 12:12:09;;;;;;;6.88;5.28;;;;;;;1.04;92.86;95574.88;4824542;29;20510;-43
2021/12/11 12:14:43;;;;;;;6.40;4.78;;;;;;;0.98;93.00;95575.22;4825709;29;20046;-45
2021/12/11 12:17:13;;;;;;;7.72;5.60;;;;;;;1.28;91.75;95571.47;4823494;29;20046;-43
2021/12/11 12:19:41;;;;;;;7.72;5.40;;;;;;;1.16;91.54;95585.16;4825393;29;20070;-43
2021/12/11 12:22:11;;;;;;;8.73;5.50;;;;;;;1.07;92.61;95586.81;4825568;29;20051;-43
2021/12/11 12:24:41;;;;;;;7.72;5.38;;;;;;;0.85;93.29;95588.09;4824931;29;20038;-45
2021/12/11 12:27:13;;;;;;;7.93;5.20;;;;;;;0.96;92.54;95586.13;4824905;29;20046;-45